Time;durP1;ratioP1;P1;durP2;ratioP2;P2;SDS_P1;SDS_P2;PMS_P1;PMS_P2;Temp;Humidity;BMP_temperature;BMP_pressure;BME280_temperature;BME280_humidity;BME280_pressure;Samples;Min_cycle;Max_cycle;Signal;HPM_P1;HPM_P2
2023/08/06 00:00:22;;;;;;;12.90;6.17;;;26.90;31.30;;;;;;21007451;28;20393;-57
2023/08/06 00:10:23;;;;;;;15.73;4.10;;;26.70;31.50;;;;;;21006745;28;20502;-58
2023/08/06 00:20:24;;;;;;;10.00;4.17;;;26.40;32.10;;;;;;21005621;28;20186;-56
2023/08/06 00:30:24;;;;;;;11.53;3.07;;;26.00;32.40;;;;;;21003699;28;20052;-58
2023/08/06 00:40:28;;;;;;;11.90;3.87;;;25.60;33.00;;;;;;21004160;28;20102;-57
2023/08/06 00:50:29;;;;;;;7.75;3.10;;;25.40;33.40;;;;;;21003569;28;20527;-56
2023/08/06 01:00:30;;;;;;;12.37;4.13;;;25.40;33.30;;;;;;21001977;28;20406;-56
2023/08/06 01:10:48;;;;;;;11.00;3.10;;;25.50;33.20;;;;;;21001123;28;20098;-56
2023/08/06 01:20:52;;;;;;;7.88;3.50;;;25.40;33.40;;;;;;21001439;28;20056;-56
2023/08/06 01:30:55;;;;;;;8.98;2.90;;;25.20;33.80;;;;;;20999636;28;20158;-56
2023/08/06 01:40:56;;;;;;;10.93;2.67;;;25.10;33.90;;;;;;20999889;28;20428;-56
2023/08/06 01:50:56;;;;;;;10.70;3.37;;;25.00;34.00;;;;;;20998370;28;20458;-56
2023/08/06 02:00:57;;;;;;;7.10;2.53;;;25.10;33.10;;;;;;20998431;28;20048;-56
2023/08/06 02:10:59;;;;;;;6.80;2.13;;;25.10;32.20;;;;;;20997561;28;20385;-57
2023/08/06 02:21:00;;;;;;;5.88;2.53;;;25.20;31.70;;;;;;20995896;28;20052;-56
2023/08/06 02:31:01;;;;;;;4.40;1.97;;;25.10;31.50;;;;;;20995331;28;20053;-56
2023/08/06 02:41:04;;;;;;;4.13;1.73;;;25.20;30.60;;;;;;20995423;28;20040;-56
2023/08/06 02:51:05;;;;;;;4.50;2.20;;;25.10;30.40;;;;;;20996105;28;20037;-57
2023/08/06 03:01:07;;;;;;;2.67;1.70;;;25.10;30.10;;;;;;20998779;28;20047;-57
2023/08/06 03:11:07;;;;;;;3.63;1.65;;;24.90;30.10;;;;;;21012047;28;20615;-56
2023/08/06 03:21:08;;;;;;;7.10;1.90;;;24.80;30.50;;;;;;21011302;28;20044;-56
2023/08/06 03:31:09;;;;;;;3.30;1.52;;;24.60;31.00;;;;;;21009456;28;20048;-58
2023/08/06 03:41:10;;;;;;;4.93;2.00;;;24.50;31.20;;;;;;21009833;28;20040;-56
2023/08/06 03:51:10;;;;;;;6.60;1.73;;;24.40;31.40;;;;;;21008250;28;20100;-57
2023/08/06 04:01:11;;;;;;;4.85;1.85;;;24.40;31.50;;;;;;21008008;28;20119;-56
2023/08/06 04:11:13;;;;;;;3.25;1.60;;;24.20;31.80;;;;;;21005270;28;20076;-57
2023/08/06 04:21:13;;;;;;;2.70;1.70;;;24.10;31.90;;;;;;21005352;28;20053;-56
2023/08/06 04:31:15;;;;;;;2.50;1.52;;;23.90;32.30;;;;;;21006128;28;20517;-57
2023/08/06 04:41:17;;;;;;;3.20;1.38;;;23.90;33.40;;;;;;21004138;28;20102;-56
2023/08/06 04:51:18;;;;;;;3.60;1.83;;;23.80;33.90;;;;;;21003188;28;20083;-57
2023/08/06 05:01:19;;;;;;;4.75;1.55;;;23.60;34.60;;;;;;21003534;28;20474;-56
2023/08/06 05:11:20;;;;;;;2.53;1.48;;;23.70;34.80;;;;;;21001176;28;20383;-56
2023/08/06 05:21:20;;;;;;;4.32;1.67;;;23.50;35.30;;;;;;21000464;28;20048;-56
2023/08/06 05:31:21;;;;;;;5.40;1.50;;;23.40;35.80;;;;;;20999952;28;20486;-56
2023/08/06 05:41:22;;;;;;;3.28;1.90;;;23.20;36.70;;;;;;21000430;28;20087;-58
2023/08/06 05:51:23;;;;;;;2.70;1.70;;;23.20;37.60;;;;;;20997735;28;20091;-57
2023/08/06 06:01:24;;;;;;;4.85;1.55;;;23.20;38.40;;;;;;20998804;28;20494;-58
2023/08/06 06:11:24;;;;;;;3.58;1.42;;;23.10;39.20;;;;;;20997828;28;20048;-56
2023/08/06 06:21:25;;;;;;;2.63;1.17;;;23.10;40.00;;;;;;20996456;28;20143;-58
2023/08/06 06:31:26;;;;;;;5.57;1.30;;;23.10;40.30;;;;;;20996722;28;20051;-58
2023/08/06 06:41:26;;;;;;;2.83;1.40;;;23.10;41.00;;;;;;20996129;28;20083;-58
2023/08/06 06:51:27;;;;;;;3.05;1.30;;;23.50;41.00;;;;;;20996259;28;20440;-57
2023/08/06 07:01:28;;;;;;;4.97;1.45;;;24.00;40.40;;;;;;20995248;28;20076;-56
2023/08/06 07:11:29;;;;;;;3.40;1.20;;;24.50;39.60;;;;;;20993571;28;20070;-58
2023/08/06 07:21:29;;;;;;;3.17;1.40;;;24.70;39.40;;;;;;20993429;28;20045;-57
2023/08/06 07:31:30;;;;;;;1.97;1.00;;;25.00;39.10;;;;;;20994735;28;20071;-58
2023/08/06 07:41:31;;;;;;;2.17;1.00;;;25.50;38.50;;;;;;20993524;28;20041;-58
2023/08/06 07:51:32;;;;;;;3.97;1.57;;;25.80;38.40;;;;;;21001053;28;20076;-56
2023/08/06 08:01:32;;;;;;;2.63;1.20;;;26.10;38.00;;;;;;20869464;28;20064;-58
2023/08/06 08:11:33;;;;;;;6.93;1.93;;;26.30;37.80;;;;;;20842140;28;20494;-58
2023/08/06 08:21:34;;;;;;;2.80;1.07;;;26.50;37.70;;;;;;20841364;28;20061;-59
2023/08/06 08:31:39;;;;;;;3.77;1.10;;;26.60;37.70;;;;;;20841442;28;20053;-59
2023/08/06 08:41:40;;;;;;;4.13;1.45;;;27.00;37.00;;;;;;20839834;28;20494;-59
2023/08/06 08:51:40;;;;;;;2.63;1.30;;;27.30;36.60;;;;;;20838737;28;20041;-60
2023/08/06 09:01:43;;;;;;;2.60;1.20;;;27.50;36.40;;;;;;20837713;28;20068;-57
2023/08/06 09:11:44;;;;;;;3.70;1.73;;;27.70;35.90;;;;;;20837299;28;20081;-58
2023/08/06 09:21:48;;;;;;;2.95;1.27;;;27.70;35.70;;;;;;20836564;28;20045;-59
2023/08/06 09:31:53;;;;;;;3.75;1.30;;;27.90;35.20;;;;;;20834165;28;20045;-58
2023/08/06 09:41:58;;;;;;;3.00;1.60;;;28.10;34.50;;;;;;20833371;28;20137;-57
2023/08/06 09:52:00;;;;;;;3.33;1.20;;;28.30;34.90;;;;;;20832759;28;20045;-59
2023/08/06 10:02:02;;;;;;;5.80;1.80;;;28.60;33.70;;;;;;20832250;28;20190;-58
2023/08/06 10:12:04;;;;;;;2.67;1.30;;;28.60;33.10;;;;;;20831960;28;20049;-58
2023/08/06 10:22:09;;;;;;;2.75;1.10;;;28.90;32.40;;;;;;20831978;28;20604;-58
2023/08/06 10:32:10;;;;;;;4.32;2.00;;;29.10;31.10;;;;;;20830643;28;20129;-58
2023/08/06 10:42:28;;;;;;;5.25;1.63;;;29.40;30.40;;;;;;20831309;28;20411;-58
2023/08/06 10:52:29;;;;;;;5.20;1.75;;;29.40;30.50;;;;;;20830775;28;20045;-58
2023/08/06 11:02:34;;;;;;;3.15;1.67;;;29.60;29.70;;;;;;20830113;28;20052;-58
2023/08/06 11:12:35;;;;;;;5.07;1.60;;;29.70;29.90;;;;;;20830030;28;20049;-57
2023/08/06 11:22:37;;;;;;;3.08;1.83;;;29.70;29.70;;;;;;20832982;28;20042;-58
2023/08/06 11:32:48;;;;;;;3.60;1.42;;;29.80;29.60;;;;;;20877019;28;20057;-58
2023/08/06 11:42:48;;;;;;;6.47;1.85;;;30.10;29.00;;;;;;20919308;28;20540;-58
2023/08/06 11:52:56;;;;;;;4.03;1.90;;;30.30;29.10;;;;;;20921680;28;20041;-57
2023/08/06 12:02:57;;;;;;;3.50;1.67;;;30.60;28.70;;;;;;20916494;28;20345;-58
2023/08/06 12:12:58;;;;;;;8.85;3.00;;;30.60;28.10;;;;;;20924397;28;20158;-59
2023/08/06 12:22:59;;;;;;;4.65;2.22;;;30.90;28.10;;;;;;20924484;28;20045;-58
2023/08/06 12:32:59;;;;;;;5.05;1.98;;;31.10;28.00;;;;;;20920859;28;20098;-58
2023/08/06 12:43:00;;;;;;;6.85;1.70;;;31.10;27.90;;;;;;20922049;28;20053;-57
2023/08/06 12:53:01;;;;;;;5.82;2.10;;;31.60;27.30;;;;;;20920094;28;20455;-58
2023/08/06 13:03:02;;;;;;;13.05;7.75;;;31.60;27.00;;;;;;20920323;28;20127;-59
2023/08/06 13:13:03;;;;;;;4.53;2.03;;;31.70;27.10;;;;;;20918439;28;20063;-57
2023/08/06 13:23:04;;;;;;;4.55;1.90;;;32.00;26.60;;;;;;20918387;28;20128;-57
2023/08/06 13:33:06;;;;;;;5.35;2.25;;;32.10;26.50;;;;;;20916774;28;20491;-58
2023/08/06 13:43:07;;;;;;;6.30;2.10;;;32.20;26.10;;;;;;20917489;28;20067;-58
2023/08/06 13:53:07;;;;;;;4.97;2.40;;;32.40;26.10;;;;;;20915461;28;20041;-58
2023/08/06 14:03:08;;;;;;;6.70;2.20;;;32.60;25.90;;;;;;20914568;28;20048;-59
2023/08/06 14:13:10;;;;;;;4.28;2.38;;;32.80;25.60;;;;;;20914004;28;20047;-59
2023/08/06 14:23:10;;;;;;;3.83;2.10;;;33.20;25.20;;;;;;20913273;28;20128;-59
2023/08/06 14:33:11;;;;;;;4.70;1.95;;;33.50;24.80;;;;;;20912630;28;20537;-59
2023/08/06 14:43:12;;;;;;;9.63;6.88;;;33.50;24.00;;;;;;20911626;28;20080;-59
2023/08/06 14:53:13;;;;;;;5.53;2.60;;;33.50;24.30;;;;;;20912459;28;20526;-59
2023/08/06 15:03:13;;;;;;;5.15;1.95;;;33.50;24.10;;;;;;20925716;28;20118;-59
2023/08/06 15:13:14;;;;;;;10.93;4.15;;;33.60;24.10;;;;;;20928412;28;20040;-58
2023/08/06 15:23:15;;;;;;;6.32;3.05;;;34.00;23.40;;;;;;20928047;28;20095;-58
2023/08/06 15:33:17;;;;;;;5.38;1.90;;;34.20;23.00;;;;;;20927294;28;20057;-58
2023/08/06 15:43:18;;;;;;;7.07;2.65;;;34.50;22.70;;;;;;20925044;28;20128;-58
2023/08/06 15:53:18;;;;;;;5.85;2.25;;;34.50;23.10;;;;;;20925555;28;20509;-59
2023/08/06 16:03:19;;;;;;;4.90;2.00;;;34.30;22.20;;;;;;20924941;28;20045;-58
2023/08/06 16:13:20;;;;;;;8.00;2.45;;;34.30;22.00;;;;;;20922523;28;20052;-58
2023/08/06 16:23:22;;;;;;;6.63;1.75;;;34.20;22.30;;;;;;20923056;28;20462;-59
2023/08/06 16:33:23;;;;;;;6.43;2.08;;;34.20;22.50;;;;;;20921642;28;20052;-57
2023/08/06 16:43:24;;;;;;;2.53;1.50;;;34.10;22.60;;;;;;20921633;28;20049;-58
2023/08/06 16:53:24;;;;;;;4.78;1.77;;;34.20;22.70;;;;;;20919385;28;20052;-59
2023/08/06 17:03:25;;;;;;;3.58;1.70;;;34.10;22.80;;;;;;20919750;28;20486;-58
2023/08/06 17:13:26;;;;;;;5.82;2.05;;;34.00;22.90;;;;;;20908132;28;20067;-58
2023/08/06 17:23:27;;;;;;;4.45;1.40;;;34.10;22.80;;;;;;20900061;28;20534;-57
2023/08/06 17:33:27;;;;;;;3.10;1.63;;;34.00;22.70;;;;;;20827780;28;20516;-57
2023/08/06 17:43:28;;;;;;;3.38;1.60;;;33.80;22.60;;;;;;20825241;28;20187;-59
2023/08/06 17:53:29;;;;;;;5.73;1.53;;;33.70;22.30;;;;;;20824347;28;20037;-57
2023/08/06 18:03:30;;;;;;;4.40;1.42;;;33.60;22.30;;;;;;20830452;28;20287;-58
2023/08/06 18:13:30;;;;;;;3.88;1.33;;;33.40;21.60;;;;;;20830046;28;20041;-57
2023/08/06 18:23:31;;;;;;;3.72;1.60;;;33.30;21.60;;;;;;20831695;28;20081;-57
2023/08/06 18:33:32;;;;;;;4.15;1.42;;;33.20;21.20;;;;;;20831598;28;20072;-58
2023/08/06 18:43:33;;;;;;;3.08;1.50;;;33.10;21.20;;;;;;20829193;28;20080;-58
2023/08/06 18:53:34;;;;;;;2.58;1.80;;;32.90;21.40;;;;;;20828761;28;20052;-58
2023/08/06 19:03:34;;;;;;;2.60;1.55;;;32.70;21.30;;;;;;20828110;28;20049;-57
2023/08/06 19:13:35;;;;;;;2.90;1.63;;;32.60;21.00;;;;;;20829376;28;20499;-58
2023/08/06 19:23:36;;;;;;;3.38;1.85;;;32.50;20.60;;;;;;20828274;28;20049;-59
2023/08/06 19:33:37;;;;;;;4.68;1.73;;;32.30;20.60;;;;;;20827502;28;20131;-59
2023/08/06 19:43:37;;;;;;;4.50;2.08;;;32.10;20.20;;;;;;20832140;28;20073;-59
2023/08/06 19:53:39;;;;;;;3.80;2.33;;;31.90;18.20;;;;;;20843690;28;20375;-59
2023/08/06 20:03:43;;;;;;;3.70;1.70;;;31.70;17.20;;;;;;20841638;28;20045;-58
2023/08/06 20:13:43;;;;;;;3.20;1.92;;;31.60;16.40;;;;;;20841946;28;20053;-58
2023/08/06 20:23:44;;;;;;;3.40;2.15;;;31.40;16.50;;;;;;20841061;28;20080;-58
2023/08/06 20:33:45;;;;;;;3.70;2.33;;;31.20;15.90;;;;;;20838901;28;20053;-57
2023/08/06 20:43:46;;;;;;;3.90;2.20;;;31.10;14.50;;;;;;20837798;28;20084;-58
2023/08/06 20:53:46;;;;;;;2.60;1.52;;;30.80;14.60;;;;;;20838270;28;20053;-58
2023/08/06 21:03:47;;;;;;;2.65;1.40;;;30.60;14.10;;;;;;20838370;28;20403;-59
2023/08/06 21:13:48;;;;;;;2.92;1.58;;;30.30;14.50;;;;;;20837558;28;20128;-58
2023/08/06 21:23:49;;;;;;;4.95;2.20;;;30.10;14.80;;;;;;20836159;28;20041;-58
2023/08/06 21:33:50;;;;;;;2.97;1.40;;;29.90;14.90;;;;;;20836811;28;20552;-58
2023/08/06 21:43:53;;;;;;;3.28;1.38;;;29.60;15.00;;;;;;20835214;28;20462;-59
2023/08/06 21:53:54;;;;;;;3.03;1.88;;;29.50;15.10;;;;;;20834270;28;20585;-58
2023/08/06 22:03:55;;;;;;;3.60;1.70;;;29.30;17.10;;;;;;20833472;28;20045;-58
2023/08/06 22:13:58;;;;;;;5.72;2.88;;;29.20;20.30;;;;;;20830916;28;20049;-58
2023/08/06 22:23:58;;;;;;;4.43;1.77;;;28.90;22.30;;;;;;20830053;28;20046;-58
2023/08/06 22:33:59;;;;;;;;;;;28.60;23.60;;;;;;20832874;28;20555;-58
2023/08/06 22:44:00;;;;;;;4.73;2.10;;;28.20;24.70;;;;;;20830862;28;19987;-58
2023/08/06 22:54:00;;;;;;;4.17;2.10;;;28.00;25.50;;;;;;20830228;28;20302;-58
2023/08/06 23:04:01;;;;;;;5.00;1.97;;;27.70;26.30;;;;;;20829779;28;20119;-58
2023/08/06 23:14:02;;;;;;;8.57;2.10;;;27.50;27.00;;;;;;20829889;28;20125;-58
2023/08/06 23:24:03;;;;;;;5.03;1.70;;;27.20;27.50;;;;;;20840854;28;20121;-59
2023/08/06 23:34:06;;;;;;;5.77;1.90;;;27.10;27.80;;;;;;20843319;28;20049;-58
2023/08/06 23:44:06;;;;;;;4.07;1.60;;;26.70;28.70;;;;;;20843981;28;20513;-58
2023/08/06 23:54:07;;;;;;;3.80;1.80;;;26.50;29.10;;;;;;20843296;28;20072;-58
